Time;durP1;ratioP1;P1;durP2;ratioP2;P2;SDS_P1;SDS_P2;PMS_P1;PMS_P2;Temp;Humidity;BMP_temperature;BMP_pressure;BME280_temperature;BME280_humidity;BME280_pressure;Samples;Min_cycle;Max_cycle;Signal;HPM_P1;HPM_P2
2023/08/07 00:00:21;;;;;;;2.35;1.52;;;;;;;;;;6275418;22;20008;-80
2023/08/07 00:02:46;;;;;;;1.60;1.38;;;;;;;;;;6248227;22;20434;-81
2023/08/07 00:05:12;;;;;;;1.75;1.58;;;;;;;;;;6290854;22;20052;-82
2023/08/07 00:07:37;;;;;;;2.55;1.73;;;;;;;;;;6248830;22;20043;-80
2023/08/07 00:10:03;;;;;;;2.70;1.70;;;;;;;;;;6222447;22;20086;-81
2023/08/07 00:12:28;;;;;;;1.70;1.60;;;;;;;;;;6247927;22;20015;-79
2023/08/07 00:14:54;;;;;;;4.93;2.13;;;;;;;;;;6248140;22;19995;-81
2023/08/07 00:17:19;;;;;;;3.65;2.05;;;;;;;;;;6274753;22;20008;-80
2023/08/07 00:19:45;;;;;;;3.20;1.90;;;;;;;;;;6222535;22;20061;-80
2023/08/07 00:22:10;;;;;;;5.88;2.00;;;;;;;;;;6274475;22;20008;-81
2023/08/07 00:24:35;;;;;;;2.25;1.90;;;;;;;;;;6247314;22;20000;-80
2023/08/07 00:27:01;;;;;;;3.15;1.70;;;;;;;;;;6249938;22;20007;-80
2023/08/07 00:29:30;;;;;;;2.42;2.10;;;;;;;;;;6283032;22;20000;-81
2023/08/07 00:31:55;;;;;;;5.68;2.10;;;;;;;;;;6276123;22;20004;-80
2023/08/07 00:34:20;;;;;;;5.07;2.05;;;;;;;;;;6274892;22;20427;-80
2023/08/07 00:36:46;;;;;;;3.03;1.90;;;;;;;;;;6247876;22;20341;-81
2023/08/07 00:39:11;;;;;;;5.30;2.20;;;;;;;;;;6247152;22;20003;-81
2023/08/07 00:41:37;;;;;;;4.28;2.17;;;;;;;;;;6274855;22;20008;-82
2023/08/07 00:44:02;;;;;;;3.50;2.60;;;;;;;;;;6275849;22;20007;-81
2023/08/07 00:46:28;;;;;;;2.60;2.40;;;;;;;;;;6276839;22;20065;-80
2023/08/07 00:48:53;;;;;;;2.63;2.42;;;;;;;;;;6224351;22;20415;-80
2023/08/07 00:51:19;;;;;;;4.90;2.47;;;;;;;;;;6253761;22;20007;-81
2023/08/07 00:53:45;;;;;;;2.78;2.50;;;;;;;;;;6227934;22;20089;-80
2023/08/07 00:56:11;;;;;;;3.03;2.42;;;;;;;;;;6224942;22;20431;-81
2023/08/07 00:58:36;;;;;;;4.97;2.80;;;;;;;;;;6249806;22;20008;-81
2023/08/07 01:01:02;;;;;;;2.80;2.60;;;;;;;;;;6249531;22;20004;-81
2023/08/07 01:03:27;;;;;;;3.90;3.47;;;;;;;;;;6249448;22;20084;-81
2023/08/07 01:05:53;;;;;;;5.05;3.30;;;;;;;;;;6277094;22;20065;-81
2023/08/07 01:08:20;;;;;;;4.43;4.03;;;;;;;;;;6249455;22;20011;-81
2023/08/07 01:10:52;;;;;;;6.93;4.25;;;;;;;;;;6250388;22;20004;-81
2023/08/07 01:13:28;;;;;;;7.93;4.50;;;;;;;;;;6279165;22;20035;-81
2023/08/07 01:15:55;;;;;;;5.90;4.90;;;;;;;;;;6253787;22;20035;-80
2023/08/07 01:18:21;;;;;;;7.65;5.25;;;;;;;;;;6224825;22;20011;-80
2023/08/07 01:20:47;;;;;;;5.88;5.25;;;;;;;;;;6223955;22;20011;-82
2023/08/07 01:23:12;;;;;;;7.88;5.97;;;;;;;;;;6250449;22;20004;-81
2023/08/07 01:25:38;;;;;;;6.35;5.75;;;;;;;;;;6278806;22;20418;-81
2023/08/07 01:28:09;;;;;;;7.40;5.97;;;;;;;;;;6253111;22;20415;-81
2023/08/07 01:30:40;;;;;;;8.68;6.60;;;;;;;;;;6249882;22;20458;-81
2023/08/07 01:33:08;;;;;;;10.00;6.80;;;;;;;;;;6200002;22;20004;-81
2023/08/07 01:35:36;;;;;;;9.30;6.38;;;;;;;;;;6277985;22;20043;-81
2023/08/07 01:38:02;;;;;;;10.63;6.50;;;;;;;;;;6284324;22;20098;-80
2023/08/07 01:40:28;;;;;;;8.68;6.70;;;;;;;;;;6225148;22;20004;-80
2023/08/07 01:42:54;;;;;;;7.00;6.30;;;;;;;;;;6249310;22;20034;-80
2023/08/07 01:45:23;;;;;;;8.07;6.93;;;;;;;;;;6249666;22;20004;-80
2023/08/07 01:47:49;;;;;;;11.73;7.40;;;;;;;;;;6249580;22;20430;-81
2023/08/07 01:50:14;;;;;;;7.38;6.57;;;;;;;;;;6276142;22;20027;-81
2023/08/07 01:52:40;;;;;;;8.25;7.10;;;;;;;;;;6276105;22;20084;-81
2023/08/07 01:55:05;;;;;;;8.77;6.60;;;;;;;;;;6275797;22;20004;-81
2023/08/07 01:57:31;;;;;;;7.65;6.78;;;;;;;;;;6223640;22;20008;-81
2023/08/07 01:59:56;;;;;;;8.63;6.60;;;;;;;;;;6250687;22;20339;-80
2023/08/07 02:02:22;;;;;;;8.30;6.20;;;;;;;;;;6233137;22;20450;-80
2023/08/07 02:04:47;;;;;;;8.70;7.03;;;;;;;;;;6276113;22;20027;-81
2023/08/07 02:07:12;;;;;;;8.15;6.63;;;;;;;;;;6276187;22;20000;-82
2023/08/07 02:09:38;;;;;;;9.20;6.75;;;;;;;;;;6248867;22;20373;-80
2023/08/07 02:12:04;;;;;;;8.43;6.63;;;;;;;;;;6249143;22;20000;-80
2023/08/07 02:14:29;;;;;;;10.00;6.60;;;;;;;;;;6275973;22;20052;-80
2023/08/07 02:16:55;;;;;;;7.13;6.43;;;;;;;;;;6275920;22;20411;-81
2023/08/07 02:19:20;;;;;;;10.85;6.53;;;;;;;;;;6275584;22;20403;-81
2023/08/07 02:21:46;;;;;;;7.70;6.03;;;;;;;;;;6248572;22;20004;-80
2023/08/07 02:24:11;;;;;;;6.47;5.78;;;;;;;;;;6283611;22;20058;-81
2023/08/07 02:26:36;;;;;;;8.35;6.20;;;;;;;;;;6276130;22;20014;-82
2023/08/07 02:29:03;;;;;;;9.00;6.30;;;;;;;;;;6276189;22;20077;-80
2023/08/07 02:31:29;;;;;;;6.85;6.15;;;;;;;;;;6248893;22;20423;-81
2023/08/07 02:33:54;;;;;;;6.88;6.20;;;;;;;;;;6248631;22;20079;-81
2023/08/07 02:36:19;;;;;;;7.97;6.18;;;;;;;;;;6248689;22;20504;-81
2023/08/07 02:38:45;;;;;;;7.20;6.50;;;;;;;;;;6223446;22;20000;-81
2023/08/07 02:41:10;;;;;;;6.45;5.65;;;;;;;;;;6275716;22;20003;-80
2023/08/07 02:43:36;;;;;;;6.43;5.82;;;;;;;;;;6275496;22;20000;-80
2023/08/07 02:46:01;;;;;;;7.10;5.60;;;;;;;;;;6279871;22;20091;-80
2023/08/07 02:48:26;;;;;;;6.43;5.22;;;;;;;;;;6284192;22;20346;-82
2023/08/07 02:50:53;;;;;;;8.48;5.45;;;;;;;;;;6275679;22;20008;-81
2023/08/07 02:53:18;;;;;;;6.13;5.53;;;;;;;;;;6275236;22;20003;-81
2023/08/07 02:55:44;;;;;;;6.95;5.70;;;;;;;;;;6275517;22;19996;-79
2023/08/07 02:58:09;;;;;;;10.27;5.45;;;;;;;;;;6275450;22;20007;-81
2023/08/07 03:00:35;;;;;;;5.95;5.25;;;;;;;;;;6275493;22;20004;-80
2023/08/07 03:03:00;;;;;;;6.05;5.43;;;;;;;;;;6275230;22;20006;-80
2023/08/07 03:05:26;;;;;;;6.60;5.20;;;;;;;;;;6248610;22;20003;-81
2023/08/07 03:07:51;;;;;;;5.63;5.07;;;;;;;;;;6248108;22;20003;-82
2023/08/07 03:10:17;;;;;;;5.78;5.25;;;;;;;;;;6282486;22;20086;-79
2023/08/07 03:12:42;;;;;;;5.85;5.25;;;;;;;;;;6275914;22;20077;-81
2023/08/07 03:15:08;;;;;;;6.82;5.30;;;;;;;;;;6275525;22;20130;-80
2023/08/07 03:17:33;;;;;;;6.00;4.78;;;;;;;;;;6248194;22;20004;-80
2023/08/07 03:19:59;;;;;;;7.70;5.03;;;;;;;;;;6275392;22;20423;-80
2023/08/07 03:22:24;;;;;;;5.97;4.70;;;;;;;;;;6248112;22;20023;-81
2023/08/07 03:24:49;;;;;;;6.15;4.72;;;;;;;;;;6248339;22;20007;-81
2023/08/07 03:27:15;;;;;;;8.10;5.05;;;;;;;;;;6275328;22;20061;-81
2023/08/07 03:29:41;;;;;;;6.65;4.90;;;;;;;;;;6274991;22;20039;-80
2023/08/07 03:32:06;;;;;;;7.22;4.93;;;;;;;;;;6280239;22;19995;-80
2023/08/07 03:34:32;;;;;;;5.45;4.95;;;;;;;;;;6285803;22;20004;-79
2023/08/07 03:36:59;;;;;;;8.00;5.40;;;;;;;;;;6275013;22;20011;-80
2023/08/07 03:39:24;;;;;;;9.13;4.78;;;;;;;;;;6275238;22;20004;-80
2023/08/07 03:41:50;;;;;;;6.60;4.72;;;;;;;;;;6274777;22;20450;-81
2023/08/07 03:44:15;;;;;;;4.90;4.40;;;;;;;;;;6222797;22;20003;-80
2023/08/07 03:46:41;;;;;;;7.60;4.82;;;;;;;;;;6247917;22;20074;-80
2023/08/07 03:49:06;;;;;;;5.50;4.55;;;;;;;;;;6276337;22;20442;-81
2023/08/07 03:51:32;;;;;;;5.75;4.72;;;;;;;;;;6247863;22;20018;-81
2023/08/07 03:53:57;;;;;;;5.95;4.78;;;;;;;;;;6256074;22;20000;-78
2023/08/07 03:56:23;;;;;;;6.00;5.07;;;;;;;;;;6275421;22;20008;-81
2023/08/07 03:58:49;;;;;;;5.22;4.68;;;;;;;;;;6247851;22;20010;-82
2023/08/07 04:01:15;;;;;;;12.10;4.70;;;;;;;;;;6274462;22;20055;-82
2023/08/07 04:03:40;;;;;;;12.93;5.57;;;;;;;;;;6274663;22;20004;-82
2023/08/07 04:06:06;;;;;;;9.98;5.63;;;;;;;;;;6274861;22;20003;-81
2023/08/07 04:08:31;;;;;;;7.68;5.30;;;;;;;;;;6275399;22;20414;-81
2023/08/07 04:11:04;;;;;;;7.40;5.10;;;;;;;;;;6275069;22;20030;-82
2023/08/07 04:13:30;;;;;;;6.80;5.22;;;;;;;;;;6248081;22;20019;-82
2023/08/07 04:15:56;;;;;;;5.78;4.85;;;;;;;;;;6248507;22;19999;-80
2023/08/07 04:18:22;;;;;;;5.65;4.97;;;;;;;;;;6283035;22;20037;-80
2023/08/07 04:20:52;;;;;;;6.75;4.85;;;;;;;;;;6277496;22;20023;-80
2023/08/07 04:23:17;;;;;;;;;;;;;;;;;;6277444;22;20082;-81
2023/08/07 04:25:43;;;;;;;6.57;4.80;;;;;;;;;;6250101;22;19907;-81
2023/08/07 04:28:08;;;;;;;5.80;5.20;;;;;;;;;;6276634;22;20012;-81
2023/08/07 04:30:34;;;;;;;8.70;4.95;;;;;;;;;;6199223;22;20414;-81
2023/08/07 04:32:59;;;;;;;5.15;4.53;;;;;;;;;;6277026;22;20050;-81
2023/08/07 04:35:25;;;;;;;6.63;4.53;;;;;;;;;;6277275;22;20050;-81
2023/08/07 04:37:50;;;;;;;6.15;4.57;;;;;;;;;;6277886;22;20394;-80
2023/08/07 04:40:16;;;;;;;6.38;4.10;;;;;;;;;;6281961;22;19999;-81
2023/08/07 04:42:41;;;;;;;5.80;4.22;;;;;;;;;;6277569;22;20032;-81
2023/08/07 04:45:07;;;;;;;5.97;4.57;;;;;;;;;;6276927;22;20320;-81
2023/08/07 04:47:32;;;;;;;5.15;4.55;;;;;;;;;;6250014;22;20351;-81
2023/08/07 04:49:58;;;;;;;4.60;4.07;;;;;;;;;;6249969;22;20093;-81
2023/08/07 04:52:23;;;;;;;5.00;4.28;;;;;;;;;;6276751;22;20520;-82
2023/08/07 04:54:48;;;;;;;6.35;4.25;;;;;;;;;;6249951;22;20007;-81
2023/08/07 04:57:14;;;;;;;4.75;4.05;;;;;;;;;;6224121;22;20008;-80
2023/08/07 04:59:39;;;;;;;6.20;4.32;;;;;;;;;;6249147;22;20000;-81
2023/08/07 05:02:05;;;;;;;5.35;4.25;;;;;;;;;;6278527;22;20003;-80
2023/08/07 05:04:31;;;;;;;5.00;3.95;;;;;;;;;;6287132;22;20086;-82
2023/08/07 05:06:56;;;;;;;7.03;4.10;;;;;;;;;;6249496;22;20010;-81
2023/08/07 05:09:22;;;;;;;5.15;4.00;;;;;;;;;;6277020;22;20086;-81
2023/08/07 05:11:48;;;;;;;4.55;4.15;;;;;;;;;;6276633;22;20003;-80
2023/08/07 05:14:13;;;;;;;5.38;4.78;;;;;;;;;;6276114;22;20042;-82
2023/08/07 05:16:39;;;;;;;6.68;3.60;;;;;;;;;;6276274;22;20363;-81
2023/08/07 05:19:04;;;;;;;6.20;3.88;;;;;;;;;;6276932;22;20062;-81
2023/08/07 05:21:30;;;;;;;5.05;3.67;;;;;;;;;;6277009;22;20026;-81
2023/08/07 05:23:55;;;;;;;5.82;3.60;;;;;;;;;;6278924;22;20905;-80
2023/08/07 05:26:21;;;;;;;5.00;3.80;;;;;;;;;;6279252;22;20000;-80
2023/08/07 05:28:47;;;;;;;6.43;3.22;;;;;;;;;;6249476;22;20007;-81
2023/08/07 05:31:12;;;;;;;3.88;3.47;;;;;;;;;;6276368;22;20370;-82
2023/08/07 05:33:38;;;;;;;5.72;3.50;;;;;;;;;;6276937;22;20065;-80
2023/08/07 05:36:05;;;;;;;5.45;3.70;;;;;;;;;;6276861;22;20000;-82
2023/08/07 05:38:31;;;;;;;10.48;3.38;;;;;;;;;;6276487;22;20007;-83
2023/08/07 05:40:57;;;;;;;4.57;3.00;;;;;;;;;;6249953;22;20086;-81
2023/08/07 05:43:22;;;;;;;3.42;2.90;;;;;;;;;;6277972;22;20000;-81
2023/08/07 05:45:48;;;;;;;2.70;2.45;;;;;;;;;;6252869;22;20003;-80
2023/08/07 05:48:16;;;;;;;4.20;3.25;;;;;;;;;;6258117;22;20015;-81
2023/08/07 05:50:42;;;;;;;4.15;2.58;;;;;;;;;;6299928;22;20003;-82
2023/08/07 05:53:08;;;;;;;4.97;2.60;;;;;;;;;;6251751;22;20011;-80
2023/08/07 05:55:34;;;;;;;3.28;2.47;;;;;;;;;;6274629;22;20063;-80
2023/08/07 05:57:59;;;;;;;2.45;2.25;;;;;;;;;;6237898;22;20008;-79
2023/08/07 06:00:25;;;;;;;7.97;3.28;;;;;;;;;;6249006;22;19999;-79
2023/08/07 06:02:50;;;;;;;5.20;2.90;;;;;;;;;;6249433;22;20113;-80
2023/08/07 06:05:16;;;;;;;4.35;2.58;;;;;;;;;;6249287;22;20034;-80
2023/08/07 06:07:42;;;;;;;3.88;2.40;;;;;;;;;;6276569;22;20018;-80
2023/08/07 06:10:07;;;;;;;2.90;2.47;;;;;;;;;;6249230;22;19996;-81
2023/08/07 06:12:33;;;;;;;3.78;2.50;;;;;;;;;;6281289;22;20004;-80
2023/08/07 06:14:58;;;;;;;4.93;1.98;;;;;;;;;;6276962;22;20003;-81
2023/08/07 06:17:24;;;;;;;4.65;2.65;;;;;;;;;;6276000;22;20008;-80
2023/08/07 06:19:49;;;;;;;3.53;2.60;;;;;;;;;;6275939;22;20038;-81
2023/08/07 06:22:15;;;;;;;8.85;2.85;;;;;;;;;;6276128;22;20027;-81
2023/08/07 06:24:40;;;;;;;5.60;2.47;;;;;;;;;;6275807;22;20458;-81
2023/08/07 06:27:05;;;;;;;4.18;2.38;;;;;;;;;;6275224;22;20011;-81
2023/08/07 06:29:31;;;;;;;2.30;2.08;;;;;;;;;;6276295;22;20003;-82
2023/08/07 06:31:56;;;;;;;2.60;1.90;;;;;;;;;;6276347;22;20012;-80
2023/08/07 06:34:22;;;;;;;8.23;2.28;;;;;;;;;;6276821;22;19999;-80
2023/08/07 06:36:47;;;;;;;2.30;2.10;;;;;;;;;;6231234;22;20415;-81
2023/08/07 06:39:13;;;;;;;26.17;2.58;;;;;;;;;;6248940;22;20004;-82
2023/08/07 06:41:39;;;;;;;2.60;2.40;;;;;;;;;;6275331;22;20004;-81
2023/08/07 06:44:04;;;;;;;5.82;2.60;;;;;;;;;;6275812;22;20000;-81
2023/08/07 06:46:30;;;;;;;8.25;2.55;;;;;;;;;;6223461;22;20091;-81
2023/08/07 06:48:55;;;;;;;6.80;2.15;;;;;;;;;;6275862;22;20003;-82
2023/08/07 06:51:20;;;;;;;4.40;2.80;;;;;;;;;;6275747;22;20011;-82
2023/08/07 06:53:46;;;;;;;5.22;2.45;;;;;;;;;;6275823;22;20000;-82
2023/08/07 06:56:11;;;;;;;7.43;2.60;;;;;;;;;;6275435;22;20004;-83
2023/08/07 06:58:37;;;;;;;5.55;2.58;;;;;;;;;;6280462;22;20242;-81
2023/08/07 07:01:02;;;;;;;4.13;3.25;;;;;;;;;;6251023;22;20070;-81
2023/08/07 07:03:27;;;;;;;7.05;2.17;;;;;;;;;;6249595;22;20003;-82
2023/08/07 07:05:53;;;;;;;7.60;2.40;;;;;;;;;;6257732;22;20003;-81
2023/08/07 07:08:18;;;;;;;6.15;2.10;;;;;;;;;;6286536;22;20008;-81
2023/08/07 07:10:44;;;;;;;1.65;1.55;;;;;;;;;;6286067;22;20003;-82
2023/08/07 07:13:09;;;;;;;2.47;2.25;;;;;;;;;;6248582;22;20008;-82
2023/08/07 07:15:35;;;;;;;4.85;2.20;;;;;;;;;;6275764;22;20070;-82
2023/08/07 07:18:01;;;;;;;2.22;2.03;;;;;;;;;;6248151;22;20016;-82
2023/08/07 07:20:26;;;;;;;3.45;2.10;;;;;;;;;;6248330;22;20425;-82
2023/08/07 07:22:52;;;;;;;3.63;2.72;;;;;;;;;;6253895;22;20000;-82
2023/08/07 07:25:18;;;;;;;4.85;3.10;;;;;;;;;;6276380;22;20003;-82
2023/08/07 07:27:43;;;;;;;8.25;3.00;;;;;;;;;;6223065;22;20437;-83
2023/08/07 07:30:09;;;;;;;2.47;1.90;;;;;;;;;;6275106;22;20423;-82
2023/08/07 07:32:34;;;;;;;3.63;1.83;;;;;;;;;;6248503;22;20034;-80
2023/08/07 07:35:00;;;;;;;2.35;2.13;;;;;;;;;;6248777;22;20014;-83
2023/08/07 07:37:26;;;;;;;2.90;2.35;;;;;;;;;;6249125;22;20006;-82
2023/08/07 07:39:51;;;;;;;6.13;2.55;;;;;;;;;;6248670;22;19996;-82
2023/08/07 07:42:16;;;;;;;4.07;1.98;;;;;;;;;;6248010;22;20393;-80
2023/08/07 07:44:42;;;;;;;3.38;1.70;;;;;;;;;;6227431;22;20004;-81
2023/08/07 07:47:08;;;;;;;2.13;1.80;;;;;;;;;;6282899;22;20319;-81
2023/08/07 07:49:33;;;;;;;3.80;2.20;;;;;;;;;;6223103;22;20004;-80
2023/08/07 07:51:59;;;;;;;6.60;2.30;;;;;;;;;;6275091;22;20007;-80
2023/08/07 07:54:25;;;;;;;2.42;2.10;;;;;;;;;;6222660;22;20338;-80
2023/08/07 07:56:50;;;;;;;1.90;1.55;;;;;;;;;;6274594;22;20350;-80
2023/08/07 07:59:16;;;;;;;4.45;2.10;;;;;;;;;;6274826;22;20008;-81
2023/08/07 08:01:41;;;;;;;5.95;2.30;;;;;;;;;;6248270;22;20039;-81
2023/08/07 08:04:07;;;;;;;2.85;1.77;;;;;;;;;;6275023;22;20060;-82
2023/08/07 08:06:32;;;;;;;6.03;3.40;;;;;;;;;;6248199;22;20000;-80
2023/08/07 08:08:59;;;;;;;3.20;1.88;;;;;;;;;;6261294;22;20000;-82
2023/08/07 08:11:24;;;;;;;2.85;2.20;;;;;;;;;;6225026;22;20011;-80
2023/08/07 08:13:50;;;;;;;2.28;1.85;;;;;;;;;;6275142;22;19995;-81
2023/08/07 08:16:15;;;;;;;2.45;1.90;;;;;;;;;;6275024;22;20004;-81
2023/08/07 08:18:41;;;;;;;2.08;1.65;;;;;;;;;;6275325;22;19996;-81
2023/08/07 08:21:06;;;;;;;3.90;1.55;;;;;;;;;;6275047;22;20004;-81
2023/08/07 08:23:32;;;;;;;4.07;2.00;;;;;;;;;;6248284;22;20004;-82
2023/08/07 08:25:57;;;;;;;4.25;1.50;;;;;;;;;;6275529;22;20010;-80
2023/08/07 08:28:22;;;;;;;4.15;1.65;;;;;;;;;;6274984;22;20004;-80
2023/08/07 08:30:48;;;;;;;4.07;2.70;;;;;;;;;;6279183;22;20004;-81
2023/08/07 08:33:14;;;;;;;3.42;2.00;;;;;;;;;;6285924;22;20462;-80
2023/08/07 08:35:40;;;;;;;3.80;2.88;;;;;;;;;;6274557;22;20015;-80
2023/08/07 08:38:05;;;;;;;3.47;2.25;;;;;;;;;;6222402;22;20083;-81
2023/08/07 08:40:31;;;;;;;4.72;2.80;;;;;;;;;;6275496;22;20007;-80
2023/08/07 08:42:59;;;;;;;3.63;2.50;;;;;;;;;;6222168;22;20126;-80
2023/08/07 08:45:25;;;;;;;6.18;3.03;;;;;;;;;;6248597;22;20006;-81
2023/08/07 08:47:51;;;;;;;5.22;2.63;;;;;;;;;;6274648;22;20366;-80
2023/08/07 08:50:17;;;;;;;8.13;3.63;;;;;;;;;;6247399;22;20004;-80
2023/08/07 08:52:44;;;;;;;3.92;2.50;;;;;;;;;;6247912;22;20003;-80
2023/08/07 08:55:10;;;;;;;3.58;1.67;;;;;;;;;;6286581;22;19996;-79
2023/08/07 08:57:36;;;;;;;4.03;1.48;;;;;;;;;;6277293;22;20042;-80
2023/08/07 09:00:06;;;;;;;1.83;1.63;;;;;;;;;;6247958;22;20008;-81
2023/08/07 09:02:32;;;;;;;7.95;2.10;;;;;;;;;;6249216;22;19999;-80
2023/08/07 09:04:57;;;;;;;5.55;3.13;;;;;;;;;;6248553;22;20004;-81
2023/08/07 09:07:23;;;;;;;7.97;2.92;;;;;;;;;;6277159;22;20065;-81
2023/08/07 09:09:48;;;;;;;6.00;3.22;;;;;;;;;;6199063;22;20003;-80
2023/08/07 09:12:17;;;;;;;4.80;3.00;;;;;;;;;;6224551;22;20058;-81
2023/08/07 09:14:42;;;;;;;3.63;2.38;;;;;;;;;;6224221;22;20031;-80
2023/08/07 09:17:08;;;;;;;5.53;2.50;;;;;;;;;;6252403;22;20003;-81
2023/08/07 09:19:33;;;;;;;3.55;2.53;;;;;;;;;;6261568;22;20311;-81
2023/08/07 09:21:58;;;;;;;4.80;1.83;;;;;;;;;;6249618;22;20490;-80
2023/08/07 09:24:24;;;;;;;2.88;2.13;;;;;;;;;;6249872;22;20078;-81
2023/08/07 09:26:51;;;;;;;2.75;2.10;;;;;;;;;;6249261;22;20003;-81
2023/08/07 09:29:16;;;;;;;5.40;1.98;;;;;;;;;;6249776;22;20427;-80
2023/08/07 09:31:46;;;;;;;3.80;2.20;;;;;;;;;;6276243;22;20066;-80
2023/08/07 09:34:13;;;;;;;3.47;2.45;;;;;;;;;;6224114;22;20031;-80
2023/08/07 09:36:39;;;;;;;3.90;2.00;;;;;;;;;;6276375;22;20365;-81
2023/08/07 09:39:04;;;;;;;7.13;2.42;;;;;;;;;;6248684;22;20007;-80
2023/08/07 09:41:30;;;;;;;2.65;2.00;;;;;;;;;;6284546;22;20005;-80
2023/08/07 09:43:57;;;;;;;5.80;2.47;;;;;;;;;;6253294;22;20082;-81
2023/08/07 09:46:22;;;;;;;5.47;2.15;;;;;;;;;;6249582;22;20018;-80
2023/08/07 09:48:48;;;;;;;3.33;2.20;;;;;;;;;;6249503;22;20004;-81
2023/08/07 09:51:13;;;;;;;4.90;2.47;;;;;;;;;;6249129;22;20008;-80
2023/08/07 09:53:39;;;;;;;2.80;1.73;;;;;;;;;;6224057;22;20320;-80
2023/08/07 09:56:04;;;;;;;2.10;1.40;;;;;;;;;;6276063;22;19996;-81
2023/08/07 09:58:30;;;;;;;2.97;1.58;;;;;;;;;;6248944;22;20011;-81
2023/08/07 10:00:59;;;;;;;5.90;1.95;;;;;;;;;;6223888;22;20022;-81
2023/08/07 10:03:25;;;;;;;3.55;1.70;;;;;;;;;;6226729;22;20069;-80
2023/08/07 10:05:50;;;;;;;2.75;1.73;;;;;;;;;;6232874;22;20004;-81
2023/08/07 10:08:16;;;;;;;5.55;1.80;;;;;;;;;;6224021;22;20062;-82
2023/08/07 10:10:41;;;;;;;2.10;1.67;;;;;;;;;;6275765;22;20007;-82
2023/08/07 10:13:07;;;;;;;11.98;7.75;;;;;;;;;;6249555;22;20027;-81
2023/08/07 10:15:34;;;;;;;2.90;1.70;;;;;;;;;;6223973;22;20004;-81
2023/08/07 10:17:59;;;;;;;4.38;2.20;;;;;;;;;;6249334;22;20078;-81
2023/08/07 10:20:26;;;;;;;3.85;1.95;;;;;;;;;;6276300;22;20008;-80
2023/08/07 10:22:52;;;;;;;5.60;3.60;;;;;;;;;;6249361;22;20000;-81
2023/08/07 10:25:20;;;;;;;3.60;2.53;;;;;;;;;;6198579;22;20061;-81
2023/08/07 10:27:45;;;;;;;7.38;2.30;;;;;;;;;;6231006;22;19992;-80
2023/08/07 10:30:15;;;;;;;2.70;2.10;;;;;;;;;;6256532;22;20090;-82
2023/08/07 10:32:42;;;;;;;5.20;1.92;;;;;;;;;;6276008;22;20004;-80
2023/08/07 10:35:07;;;;;;;2.40;2.13;;;;;;;;;;6223396;22;20003;-81
2023/08/07 10:37:38;;;;;;;4.25;2.70;;;;;;;;;;6275695;22;20433;-81
2023/08/07 10:40:04;;;;;;;3.50;1.90;;;;;;;;;;6276040;22;20457;-80
2023/08/07 10:43:17;;;;;;;5.60;2.15;;;;;;;;;;6275403;22;20042;-81
2023/08/07 10:45:42;;;;;;;3.67;2.00;;;;;;;;;;6122782;23;20345;-80
2023/08/07 10:48:10;;;;;;;8.38;2.30;;;;;;;;;;6229175;22;20004;-81
2023/08/07 10:51:00;;;;;;;3.15;2.03;;;;;;;;;;6281862;22;20004;-81
2023/08/07 10:53:35;;;;;;;2.45;2.17;;;;;;;;;;6253003;22;20004;-81
2023/08/07 10:56:04;;;;;;;2.90;2.25;;;;;;;;;;6275912;22;20034;-81
2023/08/07 10:58:34;;;;;;;4.95;1.75;;;;;;;;;;6223268;22;20129;-80
2023/08/07 11:01:21;;;;;;;7.05;1.80;;;;;;;;;;6248398;22;20322;-81
2023/08/07 11:03:56;;;;;;;4.10;2.20;;;;;;;;;;6248217;22;20439;-81
2023/08/07 11:06:28;;;;;;;5.85;1.90;;;;;;;;;;6275906;22;20067;-80
2023/08/07 11:08:54;;;;;;;6.53;1.92;;;;;;;;;;6275621;22;20004;-81
2023/08/07 11:11:19;;;;;;;4.40;2.08;;;;;;;;;;6275918;22;20354;-81
2023/08/07 11:13:45;;;;;;;2.45;2.08;;;;;;;;;;6283720;22;20006;-82
2023/08/07 11:16:10;;;;;;;7.22;3.35;;;;;;;;;;6236696;22;20008;-81
2023/08/07 11:18:36;;;;;;;3.72;2.35;;;;;;;;;;6223141;22;20000;-81
2023/08/07 11:21:01;;;;;;;3.78;2.10;;;;;;;;;;6222885;22;20039;-81
2023/08/07 11:23:27;;;;;;;5.78;2.20;;;;;;;;;;6223257;22;19996;-81
2023/08/07 11:25:53;;;;;;;2.35;1.92;;;;;;;;;;6275294;22;20012;-82
2023/08/07 11:28:22;;;;;;;3.60;2.15;;;;;;;;;;6275473;22;20032;-81
2023/08/07 11:30:49;;;;;;;4.93;2.03;;;;;;;;;;6275184;22;20061;-81
2023/08/07 11:33:14;;;;;;;4.30;2.53;;;;;;;;;;6275835;22;20000;-80
2023/08/07 11:35:43;;;;;;;3.45;2.33;;;;;;;;;;6223177;22;20060;-81
2023/08/07 11:38:08;;;;;;;10.70;2.42;;;;;;;;;;6255487;22;20007;-80
2023/08/07 11:40:34;;;;;;;6.07;2.10;;;;;;;;;;6249238;22;20381;-80
2023/08/07 11:42:59;;;;;;;4.78;2.30;;;;;;;;;;6275375;22;19999;-80
2023/08/07 11:45:25;;;;;;;22.75;8.73;;;;;;;;;;6275081;22;20035;-80
2023/08/07 11:47:51;;;;;;;54.42;22.83;;;;;;;;;;6222611;22;20324;-81
2023/08/07 11:50:16;;;;;;;3.15;2.40;;;;;;;;;;6248703;22;20007;-81
2023/08/07 11:52:41;;;;;;;3.92;2.15;;;;;;;;;;6274930;22;20004;-79
2023/08/07 11:55:09;;;;;;;8.43;2.15;;;;;;;;;;6223530;22;20346;-82
2023/08/07 11:57:34;;;;;;;6.65;2.10;;;;;;;;;;6275560;22;20015;-81
2023/08/07 12:00:00;;;;;;;4.50;2.28;;;;;;;;;;6278458;22;20007;-81
2023/08/07 12:02:25;;;;;;;3.60;2.10;;;;;;;;;;6284358;22;20000;-80
2023/08/07 12:04:51;;;;;;;5.13;2.30;;;;;;;;;;6275771;22;20061;-81
2023/08/07 12:07:23;;;;;;;3.88;2.20;;;;;;;;;;6274854;22;20438;-81
2023/08/07 12:09:48;;;;;;;3.15;1.70;;;;;;;;;;6275013;22;20008;-81
2023/08/07 12:12:13;;;;;;;3.22;2.30;;;;;;;;;;6274916;22;20008;-81
2023/08/07 12:14:40;;;;;;;8.25;2.85;;;;;;;;;;6247925;22;20028;-81
2023/08/07 12:17:09;;;;;;;4.70;1.88;;;;;;;;;;6248013;22;19999;-81
2023/08/07 12:19:42;;;;;;;9.18;2.20;;;;;;;;;;6248426;22;20011;-81
2023/08/07 12:22:09;;;;;;;2.33;1.65;;;;;;;;;;6222875;22;20003;-81
2023/08/07 12:24:36;;;;;;;10.52;3.08;;;;;;;;;;6259067;22;20004;-81
2023/08/07 12:27:03;;;;;;;2.63;1.90;;;;;;;;;;6276995;22;20019;-82
2023/08/07 12:29:30;;;;;;;4.97;1.80;;;;;;;;;;6248006;22;20007;-81
2023/08/07 12:31:55;;;;;;;5.20;1.90;;;;;;;;;;6275080;22;20083;-80
2023/08/07 12:34:21;;;;;;;4.85;1.88;;;;;;;;;;6274995;22;20450;-81
2023/08/07 12:36:47;;;;;;;5.88;2.05;;;;;;;;;;6275302;22;20014;-81
2023/08/07 12:39:12;;;;;;;4.70;1.98;;;;;;;;;;6276600;22;20008;-81
2023/08/07 12:41:37;;;;;;;3.25;1.55;;;;;;;;;;6254167;22;20003;-80
2023/08/07 12:44:03;;;;;;;4.20;1.50;;;;;;;;;;6286947;22;20091;-80
2023/08/07 12:46:29;;;;;;;3.03;1.55;;;;;;;;;;6284345;22;20027;-79
2023/08/07 12:48:54;;;;;;;3.22;1.88;;;;;;;;;;6280755;22;19996;-80
2023/08/07 12:51:20;;;;;;;3.33;1.90;;;;;;;;;;6249923;22;20011;-80
2023/08/07 12:53:46;;;;;;;3.22;1.85;;;;;;;;;;6277058;22;20000;-80
2023/08/07 12:56:12;;;;;;;3.10;1.80;;;;;;;;;;6250319;22;20153;-80
2023/08/07 12:58:38;;;;;;;2.67;2.00;;;;;;;;;;6276325;22;20003;-81
2023/08/07 13:01:04;;;;;;;6.35;1.90;;;;;;;;;;6224650;22;20010;-80
2023/08/07 13:03:29;;;;;;;3.80;2.10;;;;;;;;;;6276826;22;19999;-80
2023/08/07 13:05:55;;;;;;;3.20;2.20;;;;;;;;;;6276847;22;20351;-80
2023/08/07 13:08:20;;;;;;;2.63;1.70;;;;;;;;;;6276812;22;20380;-81
2023/08/07 13:10:46;;;;;;;3.72;2.25;;;;;;;;;;6261046;22;19990;-80
2023/08/07 13:13:11;;;;;;;3.50;2.00;;;;;;;;;;6282155;22;19999;-80
2023/08/07 13:15:37;;;;;;;5.25;2.50;;;;;;;;;;6276809;22;20004;-81
2023/08/07 13:18:03;;;;;;;4.00;2.40;;;;;;;;;;6249409;22;20008;-81
2023/08/07 13:20:33;;;;;;;4.75;2.28;;;;;;;;;;6276820;22;20333;-81
2023/08/07 13:22:58;;;;;;;3.45;2.50;;;;;;;;;;6276774;22;20000;-81
2023/08/07 13:25:24;;;;;;;4.30;2.55;;;;;;;;;;6249416;22;20057;-80
2023/08/07 13:27:49;;;;;;;5.18;3.00;;;;;;;;;;6249404;22;20415;-81
2023/08/07 13:30:15;;;;;;;3.60;2.30;;;;;;;;;;6276666;22;20095;-81
2023/08/07 13:32:40;;;;;;;5.95;3.03;;;;;;;;;;6276609;22;20007;-81
2023/08/07 13:35:06;;;;;;;7.18;3.22;;;;;;;;;;6285909;22;20004;-81
2023/08/07 13:37:33;;;;;;;8.52;3.50;;;;;;;;;;6276785;22;20014;-80
2023/08/07 13:39:58;;;;;;;6.47;4.35;;;;;;;;;;6249815;22;19999;-80
2023/08/07 13:42:25;;;;;;;5.85;4.05;;;;;;;;;;6276283;22;20004;-80
2023/08/07 13:44:50;;;;;;;3.75;2.30;;;;;;;;;;6276431;22;20088;-81
2023/08/07 13:47:17;;;;;;;3.53;1.95;;;;;;;;;;6276499;22;20011;-81
2023/08/07 13:49:43;;;;;;;6.03;1.70;;;;;;;;;;6276838;22;20004;-80
2023/08/07 13:52:08;;;;;;;1.90;1.50;;;;;;;;;;6275430;22;20438;-81
2023/08/07 13:54:34;;;;;;;2.67;1.50;;;;;;;;;;6275823;22;20423;-81
2023/08/07 13:56:59;;;;;;;2.83;1.40;;;;;;;;;;6287809;22;19988;-80
2023/08/07 13:59:24;;;;;;;2.78;1.60;;;;;;;;;;6284870;22;20007;-80
2023/08/07 14:01:51;;;;;;;4.90;1.58;;;;;;;;;;6248969;22;20011;-82
2023/08/07 14:04:17;;;;;;;1.52;1.42;;;;;;;;;;6276524;22;20023;-80
2023/08/07 14:06:44;;;;;;;2.72;1.80;;;;;;;;;;6249430;22;20011;-81
2023/08/07 14:09:09;;;;;;;4.75;1.85;;;;;;;;;;6250015;22;20407;-79
2023/08/07 14:11:35;;;;;;;4.07;1.80;;;;;;;;;;6277721;22;20010;-81
2023/08/07 14:14:01;;;;;;;3.40;1.90;;;;;;;;;;6251921;22;20350;-83
2023/08/07 14:16:26;;;;;;;4.88;2.05;;;;;;;;;;6281944;22;20456;-80
2023/08/07 14:18:52;;;;;;;3.92;2.65;;;;;;;;;;6298380;22;20029;-80
2023/08/07 14:21:17;;;;;;;5.25;3.40;;;;;;;;;;6296972;22;20003;-81
2023/08/07 14:23:45;;;;;;;7.40;3.42;;;;;;;;;;6274512;22;20027;-82
2023/08/07 14:26:10;;;;;;;3.92;2.60;;;;;;;;;;6261258;22;20008;-78
2023/08/07 14:28:36;;;;;;;5.70;2.17;;;;;;;;;;6245559;23;20015;-79
2023/08/07 14:31:06;;;;;;;2.30;1.80;;;;;;;;;;6245243;23;20001;-80
2023/08/07 14:33:31;;;;;;;4.90;2.28;;;;;;;;;;6218576;23;20023;-79
2023/08/07 14:35:57;;;;;;;5.03;2.35;;;;;;;;;;6218128;23;19996;-78